Latest Weather Observations for Mildura

IDN60801

Issued at 3:02 pm EDT Tuesday 28 March 2017 (issued every 30 minutes, with the page automatically refreshed every 10 minutes)

About weather observations | Map of weather stations | Latest weather observations for NSW | Other Formats
Station Details ID: 076031 Name: MILDURA AIRPORT Lat: -34.24 Lon: 142.09 Height: 50.0 m
Data from the previous 72 hours. | See also: Recent months at Mildura
Date/Time
EDT
Temp
°C
App
Temp
°C
Dew
Point
°C
Rel
Hum
%
Delta-T
°C
Wind Press
QNH
hPa
Press
MSL
hPa
Rain since
9am
mm
Dir  Spd
km/h
Gust
km/h
Spd
kts
Gust
kts
28/02:30pm 25.0 22.3 5.7 29 9.9 WSW 9 19 5 10 1014.4 1014.3 0.0
28/02:00pm 24.4 21.9 6.6 32 9.2 WSW 9 19 5 10 1014.7 1014.6 0.0
28/01:30pm 24.4 22.6 7.1 33 9.0 N 6 11 3 6 1015.1 1015.0 0.0
28/01:00pm 22.9 19.9 6.2 34 8.5 W 11 17 6 9 1015.8 1015.7 0.0
28/12:30pm 22.5 20.7 7.9 39 7.7 W 7 15 4 8 1016.1 1016.0 0.0
28/12:00pm 21.6 20.0 8.8 44 6.8 SW 7 13 4 7 1016.4 1016.3 0.0
28/11:30am 21.4 20.0 9.0 45 6.6 N 6 11 3 6 1016.7 1016.6 0.0
28/11:00am 20.8 19.6 9.4 48 6.1 SSW 6 13 3 7 1016.8 1016.7 0.0
28/10:30am 20.6 19.6 8.9 47 6.2 E 4 9 2 5 1016.7 1016.6 0.0
28/10:00am 18.8 17.4 9.6 55 4.9 S 7 11 4 6 1016.8 1016.7 0.0
28/09:30am 17.1 16.0 8.5 57 4.4 S 4 9 2 5 1016.7 1016.6 0.0
28/09:00am 14.6 13.0 8.1 65 3.3 S 6 9 3 5 1016.6 1016.5 0.0
28/08:30am 12.1 10.3 7.0 71 2.5 SSW 6 7 3 4 1016.3 1016.2 0.0
28/08:00am 11.0 9.0 6.9 76 1.9 SSW 7 11 4 6 1016.2 1016.1 0.0
28/07:30am 10.9 8.4 6.6 75 2.0 SW 9 11 5 6 1016.0 1015.9 0.0
28/07:00am 11.1 8.6 6.6 74 2.1 SSW 9 11 5 6 1015.8 1015.7 0.0
28/06:30am 11.3 8.8 6.4 72 2.3 SSW 9 11 5 6 1015.6 1015.5 0.0
28/06:00am 11.6 9.1 6.5 71 2.4 SSW 9 11 5 6 1015.6 1015.5 0.0
28/05:30am 12.1 9.6 6.4 68 2.7 SSW 9 11 5 6 1015.4 1015.3 0.0
28/05:00am 12.8 10.3 6.6 66 3.0 SSW 9 13 5 7 1015.1 1015.0 0.0
28/04:30am 12.9 10.0 6.5 65 3.1 SSW 11 13 6 7 1015.4 1015.3 0.0
28/04:00am 12.7 10.1 6.1 64 3.1 SSW 9 11 5 6 1015.5 1015.4 0.0
28/03:30am 13.0 10.8 6.4 64 3.2 SW 7 9 4 5 1015.8 1015.7 0.0
28/03:00am 13.1 11.0 5.8 61 3.4 SSE 6 6 3 3 1015.8 1015.7 0.0
28/02:30am 13.8 12.5 6.2 60 3.6 E 2 6 1 3 1015.8 1015.7 0.0
28/02:00am 14.4 12.4 6.3 58 3.9 SE 6 9 3 5 1015.8 1015.7 0.0
28/01:30am 14.9 12.8 5.7 54 4.4 SSE 6 7 3 4 1016.0 1015.9 0.0
28/01:00am 16.2 13.9 5.8 50 5.0 S 7 9 4 5 1015.9 1015.8 0.0
28/12:30am 16.8 14.2 6.0 49 5.3 S 9 11 5 6 1015.8 1015.7 0.0
28/12:00am 17.0 14.7 5.6 47 5.5 SE 7 9 4 5 1015.6 1015.5 0.0
 
Date/Time
EDT
Temp
°C
App
Temp
°C
Dew
Point
°C
Rel
Hum
%
Delta-T
°C
Wind Press
QNH
hPa
Press
MSL
hPa
Rain since
9am
mm
Dir  Spd
km/h
Gust
km/h
Spd
kts
Gust
kts
27/11:30pm 18.2 16.4 5.4 43 6.2 S 4 11 2 6 1015.6 1015.5 0.0
27/11:00pm 19.1 16.2 4.8 39 6.9 S 9 15 5 8 1015.5 1015.4 0.0
27/10:30pm 19.7 16.3 4.2 36 7.4 SSW 11 17 6 9 1015.0 1014.9 0.0
27/10:00pm 20.9 17.1 4.0 33 8.1 SSW 13 19 7 10 1015.0 1014.9 0.0
27/09:30pm 21.4 17.5 3.6 31 8.6 SW 13 19 7 10 1014.6 1014.5 0.0
27/09:00pm 21.8 18.1 4.4 32 8.5 SSW 13 19 7 10 1014.1 1014.0 0.0
27/08:30pm 22.3 19.0 4.8 32 8.7 SSW 11 17 6 9 1013.6 1013.5 0.0
27/08:00pm 22.9 19.7 5.3 32 8.8 SSW 11 17 6 9 1013.2 1013.1 0.0
27/07:30pm 23.9 20.4 5.3 30 9.4 SSW 13 22 7 12 1013.0 1012.9 0.0
27/07:00pm 25.0 20.1 4.2 26 10.4 SW 19 30 10 16 1012.5 1012.4 0.0
27/06:30pm 25.6 20.5 4.1 25 10.7 SSW 20 30 11 16 1012.2 1012.1 0.0
27/06:00pm 26.2 21.6 6.3 28 10.4 SSW 20 33 11 18 1012.0 1011.9 0.0
27/05:30pm 27.3 22.5 7.2 28 10.7 SSW 22 39 12 21 1011.7 1011.5 0.0
27/05:00pm 27.1 21.7 6.5 27 10.8 SSW 24 41 13 22 1011.6 1011.4 0.0
27/04:30pm 27.9 22.7 7.2 27 11.1 SSW 24 35 13 19 1011.6 1011.4 0.0
27/04:00pm 28.6 24.3 9.3 30 10.7 SSW 22 44 12 24 1011.5 1011.3 0.0
27/03:30pm 27.1 22.9 11.2 37 9.1 SW 24 37 13 20 1011.8 1011.7 0.0
27/03:00pm 26.4 22.1 13.2 44 7.8 SW 28 44 15 24 1012.2 1012.1 0.0
27/02:37pm 27.9 23.3 12.3 38 9.1 SW 28 46 15 25 1011.9 1011.8 0.0
27/02:30pm 28.4 24.2 12.3 37 9.4 SW 26 44 14 24 1011.9 1011.8 0.0
27/02:01pm 29.0 24.3 12.0 35 9.9 SW 28 46 15 25 1011.8 1011.7 0.0
27/02:00pm 28.9 24.6 11.9 35 9.9 SW 26 46 14 25 1011.7 1011.5 0.0
27/01:36pm 29.9 26.1 12.3 33 10.3 SW 24 39 13 21 1011.6 1011.4 0.0
27/01:30pm 29.8 26.0 12.3 34 10.3 SW 24 41 13 22 1011.8 1011.7 0.0
27/01:16pm 29.6 24.8 11.6 33 10.4 WSW 28 46 15 25 1011.7 1011.5 0.0
27/01:00pm 30.0 25.9 11.5 32 10.7 WSW 24 41 13 22 1011.6 1011.4 0.0
27/12:56pm 29.7 25.7 11.7 33 10.5 SW 24 41 13 22 1011.6 1011.4 0.0
27/12:30pm 29.3 24.5 11.8 34 10.2 SW 28 44 15 24 1011.4 1011.2 0.0
27/12:21pm 29.4 24.7 11.9 34 10.2 SW 28 44 15 24 1011.2 1011.0 0.0
27/12:00pm 29.5 24.7 12.9 36 9.8 SW 30 43 16 23 1010.7 1010.5 0.0
27/11:47am 29.8 25.3 12.7 35 10.1 WSW 28 46 15 25 1010.5 1010.3 0.0
27/11:30am 29.4 25.6 14.8 41 8.9 WSW 28 44 15 24 1010.3 1010.1 0.0
27/11:00am 31.0 26.1 12.4 32 11.0 WSW 30 43 16 23 1009.7 1009.5 0.0
27/10:35am 32.3 27.3 10.9 27 12.4 WNW 28 41 15 22 1009.2 1009.0 0.0
27/10:30am 33.7 29.1 10.9 25 13.3 NW 26 41 14 22 1008.9 1008.7 0.0
27/10:00am 31.9 26.7 11.7 29 11.9 WNW 30 54 16 29 1008.7 1008.5 0.0
27/09:53am 31.6 26.7 11.4 29 11.8 WNW 28 54 15 29 1008.9 1008.7 0.0
27/09:30am 30.7 26.0 12.1 32 10.9 N 28 41 15 22 1007.2 1007.0 0.0
27/09:00am 29.8 25.4 11.8 33 10.5 N 26 39 14 21 1007.1 1006.9 0.0
27/08:30am 28.3 23.5 11.8 36 9.5 NNE 28 39 15 21 1006.7 1006.5 0.0
27/08:00am 27.5 23.2 11.9 38 9.0 N 26 33 14 18 1006.8 1006.6 0.0
27/07:30am 27.6 23.5 11.6 37 9.2 N 24 32 13 17 1007.1 1006.9 0.0
27/07:00am 27.6 23.7 12.0 38 9.0 NNE 24 30 13 16 1007.1 1006.9 0.0
27/06:30am 27.7 23.4 12.1 38 9.0 NNE 26 33 14 18 1007.1 1006.9 0.0
27/06:00am 27.7 23.4 12.1 38 9.1 NNE 26 32 14 17 1007.1 1006.9 0.0
27/05:30am 27.4 23.5 12.2 39 8.8 NNE 24 30 13 16 1007.2 1007.0 0.0
27/05:00am 27.0 24.0 12.6 41 8.4 NNE 20 24 11 13 1007.2 1007.0 0.0
27/04:30am 27.2 24.3 12.8 41 8.4 NNE 20 22 11 12 1007.3 1007.1 0.0
27/04:00am 27.7 24.8 12.9 40 8.7 NNE 20 24 11 13 1007.7 1007.5 0.0
27/03:30am 27.3 25.1 13.3 42 8.3 NNE 17 20 9 11 1008.0 1007.8 0.0
27/03:00am 27.6 25.5 13.5 41 8.4 NE 17 22 9 12 1008.2 1008.0 0.0
27/02:30am 28.3 25.6 13.4 40 8.8 NE 20 26 11 14 1008.3 1008.1 0.0
27/02:00am 28.1 25.6 13.6 41 8.6 NE 19 26 10 14 1008.5 1008.3 0.0
27/01:30am 28.0 25.5 13.5 41 8.6 NE 19 24 10 13 1008.9 1008.7 0.0
27/01:00am 27.8 25.9 14.1 43 8.2 NE 17 20 9 11 1009.3 1009.1 0.0
27/12:30am 27.1 25.8 13.8 44 7.9 ENE 13 17 7 9 1009.7 1009.5 0.0
27/12:00am 27.3 25.7 14.0 44 7.9 ENE 15 20 8 11 1010.0 1009.8 0.0
 
Date/Time
EDT
Temp
°C
App
Temp
°C
Dew
Point
°C
Rel
Hum
%
Delta-T
°C
Wind Press
QNH
hPa
Press
MSL
hPa
Rain since
9am
mm
Dir  Spd
km/h
Gust
km/h
Spd
kts
Gust
kts
26/11:30pm 27.1 25.9 14.1 44 7.8 ENE 13 19 7 10 1010.2 1010.0 0.0
26/11:00pm 27.4 26.2 14.1 44 8.0 E 13 17 7 9 1010.7 1010.5 0.0
26/10:30pm 27.5 26.4 14.2 44 8.0 E 13 19 7 10 1010.8 1010.6 0.0
26/10:00pm 28.1 27.0 14.3 42 8.3 E 13 17 7 9 1010.9 1010.7 0.0
26/09:30pm 28.5 27.5 14.7 43 8.4 E 13 17 7 9 1011.0 1010.8 0.0
26/09:00pm 28.3 28.3 15.2 44 8.0 ESE 9 9 5 5 1011.0 1010.8 0.0
26/08:30pm 29.3 29.0 14.3 40 9.1 SE 9 13 5 7 1010.7 1010.5 0.0
26/08:00pm 30.5 30.1 14.2 37 9.9 SE 9 9 5 5 1010.6 1010.4 0.0
26/07:30pm 31.8 31.7 14.0 34 10.8 E 7 9 4 5 1010.6 1010.4 0.0
26/07:00pm 33.3 32.5 13.9 31 11.8 E 11 15 6 8 1010.4 1010.2 0.0
26/06:30pm 34.0 33.0 13.5 29 12.5 ENE 11 13 6 7 1010.3 1010.1 0.0
26/06:00pm 34.4 33.1 13.8 29 12.6 E 13 17 7 9 1010.2 1010.0 0.0
26/05:30pm 34.8 34.0 13.0 26 13.2 ENE 9 15 5 8 1010.2 1010.0 0.0
26/05:00pm 35.0 34.7 13.2 27 13.3 WSW 7 15 4 8 1010.2 1010.0 0.0
26/04:30pm 34.1 33.1 12.4 26 13.0 WNW 9 13 5 7 1010.3 1010.1 0.0
26/04:00pm 34.8 34.8 14.1 28 12.7 NNE 7 11 4 6 1010.5 1010.3 0.0
26/03:30pm 33.9 33.6 13.4 29 12.4 S 7 15 4 8 1011.0 1010.8 0.0
26/03:00pm 33.4 33.0 14.0 31 11.9 WNW 9 13 5 7 1011.5 1011.3 0.0
26/02:30pm 32.7 32.4 14.3 32 11.3 NNE 9 15 5 8 1012.0 1011.9 0.0
26/02:00pm 31.1 31.1 14.3 36 10.2 N 7 13 4 7 1012.5 1012.4 0.0
26/01:30pm 30.2 30.4 14.7 39 9.5 NE 7 13 4 7 1012.7 1012.6 0.0
26/01:00pm 29.4 30.6 15.9 44 8.4 N 4 7 2 4 1013.1 1013.0 0.0
26/12:30pm 29.0 29.9 16.2 46 8.0 E 6 11 3 6 1013.5 1013.4 0.0
26/12:00pm 28.2 28.4 15.8 47 7.6 ENE 9 13 5 7 1013.6 1013.5 0.0
26/11:30am 28.2 29.0 15.8 47 7.6 SE 6 13 3 7 1013.8 1013.7 0.0
26/11:00am 27.4 28.0 16.7 52 6.7 ESE 9 11 5 6 1014.1 1014.0 0.0
26/10:30am 26.8 27.7 16.7 54 6.3 ESE 7 11 4 6 1014.2 1014.1 0.0
26/10:00am 24.2 24.5 15.9 59 5.0 SSE 9 13 5 7 1014.5 1014.4 0.0
26/09:30am 22.6 22.8 15.7 65 4.2 S 9 13 5 7 1014.4 1014.3 0.0
26/09:00am 21.7 22.3 15.8 69 3.5 S 7 13 4 7 1014.0 1013.9 0.0
26/08:30am 21.2 21.7 15.5 70 3.4 S 7 9 4 5 1013.7 1013.6 0.0
26/08:00am 20.4 21.0 15.4 73 3.0 SSW 6 7 3 4 1013.7 1013.6 0.0
26/07:30am 20.8 21.4 15.4 71 3.2 S 6 7 3 4 1013.3 1013.2 0.0
26/07:00am 21.6 22.6 15.4 68 3.7 SW 4 7 2 4 1013.3 1013.2 0.0
26/06:30am 21.9 23.3 15.3 66 3.9 S 2 7 1 4 1012.9 1012.8 0.0
26/06:00am 22.4 23.1 15.5 65 4.1 S 6 9 3 5 1012.7 1012.6 0.0
26/05:30am 22.8 22.9 15.6 64 4.3 S 9 13 5 7 1012.5 1012.4 0.0
26/05:00am 23.1 23.2 15.4 62 4.6 SSE 9 13 5 7 1012.4 1012.3 0.0
26/04:30am 23.7 24.2 15.5 60 4.9 S 7 11 4 6 1012.3 1012.2 0.0
26/04:00am 24.3 24.4 15.5 58 5.3 S 9 15 5 8 1012.4 1012.3 0.0
26/03:30am 24.7 24.3 15.3 56 5.7 S 11 17 6 9 1012.4 1012.3 0.0
26/03:00am 25.1 25.1 15.1 53 6.0 S 9 15 5 8 1012.7 1012.6 0.0
26/02:30am 25.6 25.0 14.7 51 6.5 SSW 11 15 6 8 1012.9 1012.8 0.0
26/02:00am 25.9 25.6 14.4 49 6.9 SSW 9 13 5 7 1012.7 1012.6 0.0
26/01:30am 26.1 25.6 13.9 47 7.2 SSW 9 13 5 7 1012.8 1012.7 0.0
26/01:00am 26.6 26.1 13.7 45 7.6 SSW 9 11 5 6 1013.1 1013.0 0.0
26/12:30am 26.8 26.1 13.2 43 8.0 SW 9 11 5 6 1013.5 1013.4 0.0
26/12:00am 27.1 26.8 12.7 41 8.4 SSW 6 7 3 4 1013.4 1013.3 0.0
 
Date/Time
EDT
Temp
°C
App
Temp
°C
Dew
Point
°C
Rel
Hum
%
Delta-T
°C
Wind Press
QNH
hPa
Press
MSL
hPa
Rain since
9am
mm
Dir  Spd
km/h
Gust
km/h
Spd
kts
Gust
kts
25/11:30pm 27.8 26.9 12.6 39 8.9 SW 9 13 5 7 1013.6 1013.5 0.0
25/11:00pm 28.0 26.9 12.0 37 9.3 SW 9 15 5 8 1013.8 1013.7 0.0
25/10:30pm 28.3 27.3 12.2 37 9.4 SW 9 13 5 7 1013.7 1013.6 0.0
25/10:00pm 28.6 27.4 11.6 34 9.8 SW 9 13 5 7 1013.4 1013.3 0.0
25/09:30pm 29.1 27.9 11.6 33 10.1 SW 9 15 5 8 1013.0 1012.9 0.0
25/09:00pm 29.2 28.1 10.8 32 10.5 SSW 7 11 4 6 1012.5 1012.4 0.0
25/08:30pm 29.4 28.5 11.5 33 10.4 SW 7 9 4 5 1012.2 1012.1 0.0
25/08:00pm 30.5 28.9 11.5 31 11.1 SSW 11 17 6 9 1011.8 1011.7 0.0
25/07:30pm 31.2 29.9 11.1 29 11.6 SW 9 15 5 8 1011.6 1011.4 0.0
25/07:00pm 31.7 29.6 11.0 28 12.0 SSW 13 19 7 10 1011.3 1011.1 0.0
25/06:30pm 31.9 29.0 11.1 28 12.1 SSW 17 24 9 13 1011.1 1010.9 0.0
25/06:00pm 32.5 30.0 12.2 29 12.0 SSW 17 30 9 16 1010.7 1010.5 0.0
25/05:30pm 33.2 30.1 11.7 27 12.7 SW 19 30 10 16 1010.7 1010.5 0.0
25/05:00pm 34.1 31.7 11.3 25 13.4 WSW 15 30 8 16 1010.4 1010.2 0.0
25/04:30pm 34.2 31.2 10.7 24 13.7 WSW 17 30 9 16 1010.2 1010.0 0.0
25/04:00pm 34.6 31.9 10.4 23 14.1 SW 15 26 8 14 1010.3 1010.1 0.0
25/03:30pm 33.9 31.6 10.5 24 13.6 SW 13 20 7 11 1010.4 1010.2 0.0

Other Formats:

Comma delimited format used in spreadsheet applications
http://www.bom.gov.au/fwo/IDN60801/IDN60801.94693.axf

JavaScript Object Notation format (JSON) in row-major order
http://www.bom.gov.au/fwo/IDN60801/IDN60801.94693.json